sensor_id;sensor_type;location;lat;lon;timestamp;P1;durP1;ratioP1;P2;durP2;ratioP2
17872;SDS011;36318;42.620;23.338;2022-08-21T00:01:39;15.70;;;8.43;;
17872;SDS011;36318;42.620;23.338;2022-08-21T00:04:07;10.93;;;8.83;;
17872;SDS011;36318;42.620;23.338;2022-08-21T00:06:35;12.60;;;7.83;;
17872;SDS011;36318;42.620;23.338;2022-08-21T00:09:03;10.67;;;8.13;;
17872;SDS011;36318;42.620;23.338;2022-08-21T00:11:31;9.53;;;7.37;;
17872;SDS011;36318;42.620;23.338;2022-08-21T00:14:00;13.03;;;8.23;;
17872;SDS011;36318;42.620;23.338;2022-08-21T00:16:27;10.53;;;8.67;;
17872;SDS011;36318;42.620;23.338;2022-08-21T00:18:55;10.27;;;7.30;;
17872;SDS011;36318;42.620;23.338;2022-08-21T00:21:22;11.90;;;9.10;;
17872;SDS011;36318;42.620;23.338;2022-08-21T00:23:50;19.17;;;8.37;;
17872;SDS011;36318;42.620;23.338;2022-08-21T00:26:17;13.40;;;8.40;;
17872;SDS011;36318;42.620;23.338;2022-08-21T00:28:44;11.80;;;7.63;;
17872;SDS011;36318;42.620;23.338;2022-08-21T00:31:11;14.90;;;8.97;;
17872;SDS011;36318;42.620;23.338;2022-08-21T00:33:38;14.33;;;9.50;;
17872;SDS011;36318;42.620;23.338;2022-08-21T00:36:06;15.30;;;9.73;;
17872;SDS011;36318;42.620;23.338;2022-08-21T00:38:35;15.80;;;9.57;;
17872;SDS011;36318;42.620;23.338;2022-08-21T00:41:03;20.27;;;10.50;;
17872;SDS011;36318;42.620;23.338;2022-08-21T00:43:33;16.27;;;10.00;;
17872;SDS011;36318;42.620;23.338;2022-08-21T00:46:02;19.27;;;11.57;;
17872;SDS011;36318;42.620;23.338;2022-08-21T00:48:30;15.00;;;11.40;;
17872;SDS011;36318;42.620;23.338;2022-08-21T00:50:59;15.80;;;11.60;;
17872;SDS011;36318;42.620;23.338;2022-08-21T00:53:31;16.57;;;11.97;;
17872;SDS011;36318;42.620;23.338;2022-08-21T00:56:02;18.63;;;11.80;;
17872;SDS011;36318;42.620;23.338;2022-08-21T00:58:31;14.80;;;11.37;;
17872;SDS011;36318;42.620;23.338;2022-08-21T01:00:58;19.77;;;12.60;;
17872;SDS011;36318;42.620;23.338;2022-08-21T01:03:26;16.83;;;12.43;;
17872;SDS011;36318;42.620;23.338;2022-08-21T01:05:53;17.03;;;12.97;;
17872;SDS011;36318;42.620;23.338;2022-08-21T01:08:21;22.07;;;11.83;;
17872;SDS011;36318;42.620;23.338;2022-08-21T01:10:50;20.47;;;13.77;;
17872;SDS011;36318;42.620;23.338;2022-08-21T01:13:19;22.77;;;12.63;;
17872;SDS011;36318;42.620;23.338;2022-08-21T01:15:49;16.73;;;12.53;;
17872;SDS011;36318;42.620;23.338;2022-08-21T01:18:19;18.33;;;12.73;;
17872;SDS011;36318;42.620;23.338;2022-08-21T01:20:58;24.13;;;12.77;;
17872;SDS011;36318;42.620;23.338;2022-08-21T01:23:27;18.77;;;10.80;;
17872;SDS011;36318;42.620;23.338;2022-08-21T01:25:54;15.63;;;11.30;;
17872;SDS011;36318;42.620;23.338;2022-08-21T01:28:21;12.17;;;9.63;;
17872;SDS011;36318;42.620;23.338;2022-08-21T01:30:48;12.33;;;8.73;;
17872;SDS011;36318;42.620;23.338;2022-08-21T01:33:18;12.50;;;8.63;;
17872;SDS011;36318;42.620;23.338;2022-08-21T01:35:46;14.90;;;8.20;;
17872;SDS011;36318;42.620;23.338;2022-08-21T01:38:14;10.57;;;6.57;;
17872;SDS011;36318;42.620;23.338;2022-08-21T01:40:41;7.73;;;5.57;;
17872;SDS011;36318;42.620;23.338;2022-08-21T01:43:07;11.20;;;6.67;;
17872;SDS011;36318;42.620;23.338;2022-08-21T01:45:34;13.33;;;6.87;;
17872;SDS011;36318;42.620;23.338;2022-08-21T01:48:01;11.63;;;5.60;;
17872;SDS011;36318;42.620;23.338;2022-08-21T01:50:29;8.03;;;5.30;;
17872;SDS011;36318;42.620;23.338;2022-08-21T01:52:56;12.13;;;6.03;;
17872;SDS011;36318;42.620;23.338;2022-08-21T01:55:24;8.47;;;4.90;;
17872;SDS011;36318;42.620;23.338;2022-08-21T01:57:51;15.40;;;5.10;;
17872;SDS011;36318;42.620;23.338;2022-08-21T02:00:19;12.07;;;5.70;;
17872;SDS011;36318;42.620;23.338;2022-08-21T02:02:48;7.10;;;5.80;;
17872;SDS011;36318;42.620;23.338;2022-08-21T02:05:15;14.33;;;6.23;;
17872;SDS011;36318;42.620;23.338;2022-08-21T02:07:45;11.37;;;6.23;;
17872;SDS011;36318;42.620;23.338;2022-08-21T02:10:14;10.23;;;6.53;;
17872;SDS011;36318;42.620;23.338;2022-08-21T02:12:45;10.07;;;6.03;;
17872;SDS011;36318;42.620;23.338;2022-08-21T02:15:12;11.87;;;5.90;;
17872;SDS011;36318;42.620;23.338;2022-08-21T02:17:40;9.17;;;5.73;;
17872;SDS011;36318;42.620;23.338;2022-08-21T02:20:10;8.30;;;5.30;;
17872;SDS011;36318;42.620;23.338;2022-08-21T02:22:38;13.30;;;6.03;;
17872;SDS011;36318;42.620;23.338;2022-08-21T02:25:05;16.67;;;6.43;;
17872;SDS011;36318;42.620;23.338;2022-08-21T02:27:37;9.27;;;5.10;;
17872;SDS011;36318;42.620;23.338;2022-08-21T02:30:09;8.23;;;4.67;;
17872;SDS011;36318;42.620;23.338;2022-08-21T02:32:38;9.90;;;4.93;;
17872;SDS011;36318;42.620;23.338;2022-08-21T02:35:05;7.43;;;5.07;;
17872;SDS011;36318;42.620;23.338;2022-08-21T02:37:32;11.73;;;5.57;;
17872;SDS011;36318;42.620;23.338;2022-08-21T02:39:59;11.40;;;4.70;;
17872;SDS011;36318;42.620;23.338;2022-08-21T02:42:26;11.40;;;4.73;;
17872;SDS011;36318;42.620;23.338;2022-08-21T02:44:53;10.57;;;5.50;;
17872;SDS011;36318;42.620;23.338;2022-08-21T02:47:22;12.73;;;5.53;;
17872;SDS011;36318;42.620;23.338;2022-08-21T02:49:48;11.23;;;5.20;;
17872;SDS011;36318;42.620;23.338;2022-08-21T02:52:15;11.77;;;5.13;;
17872;SDS011;36318;42.620;23.338;2022-08-21T02:54:42;10.00;;;4.53;;
17872;SDS011;36318;42.620;23.338;2022-08-21T02:57:09;8.83;;;4.90;;
17872;SDS011;36318;42.620;23.338;2022-08-21T02:59:36;7.40;;;3.70;;
17872;SDS011;36318;42.620;23.338;2022-08-21T03:02:02;10.73;;;4.00;;
17872;SDS011;36318;42.620;23.338;2022-08-21T03:04:31;6.93;;;3.83;;
17872;SDS011;36318;42.620;23.338;2022-08-21T03:06:58;11.37;;;4.60;;
17872;SDS011;36318;42.620;23.338;2022-08-21T03:09:25;7.00;;;4.20;;
17872;SDS011;36318;42.620;23.338;2022-08-21T03:11:52;8.10;;;3.73;;
17872;SDS011;36318;42.620;23.338;2022-08-21T03:14:19;11.77;;;3.90;;
17872;SDS011;36318;42.620;23.338;2022-08-21T03:16:46;12.40;;;4.20;;
17872;SDS011;36318;42.620;23.338;2022-08-21T03:19:13;7.40;;;3.73;;
17872;SDS011;36318;42.620;23.338;2022-08-21T03:21:41;15.13;;;4.03;;
17872;SDS011;36318;42.620;23.338;2022-08-21T03:24:08;9.77;;;4.10;;
17872;SDS011;36318;42.620;23.338;2022-08-21T03:26:34;8.50;;;4.30;;
17872;SDS011;36318;42.620;23.338;2022-08-21T03:29:01;9.50;;;4.00;;
17872;SDS011;36318;42.620;23.338;2022-08-21T03:31:28;10.33;;;3.90;;
17872;SDS011;36318;42.620;23.338;2022-08-21T03:33:56;8.37;;;4.37;;
17872;SDS011;36318;42.620;23.338;2022-08-21T03:36:23;8.93;;;3.93;;
17872;SDS011;36318;42.620;23.338;2022-08-21T03:38:52;9.47;;;4.17;;
17872;SDS011;36318;42.620;23.338;2022-08-21T03:41:19;9.03;;;3.60;;
17872;SDS011;36318;42.620;23.338;2022-08-21T03:43:46;12.87;;;4.20;;
17872;SDS011;36318;42.620;23.338;2022-08-21T03:46:13;9.67;;;3.80;;
17872;SDS011;36318;42.620;23.338;2022-08-21T03:48:40;6.97;;;3.43;;
17872;SDS011;36318;42.620;23.338;2022-08-21T03:51:07;10.60;;;4.23;;
17872;SDS011;36318;42.620;23.338;2022-08-21T03:53:34;7.90;;;3.87;;
17872;SDS011;36318;42.620;23.338;2022-08-21T03:56:03;8.90;;;3.53;;
17872;SDS011;36318;42.620;23.338;2022-08-21T03:58:30;7.27;;;4.07;;
17872;SDS011;36318;42.620;23.338;2022-08-21T04:00:59;9.80;;;4.20;;
17872;SDS011;36318;42.620;23.338;2022-08-21T04:03:27;9.77;;;4.20;;
17872;SDS011;36318;42.620;23.338;2022-08-21T04:05:55;10.53;;;3.80;;
17872;SDS011;36318;42.620;23.338;2022-08-21T04:08:22;7.60;;;3.97;;
17872;SDS011;36318;42.620;23.338;2022-08-21T04:10:53;10.80;;;4.43;;
17872;SDS011;36318;42.620;23.338;2022-08-21T04:13:23;10.33;;;3.93;;
17872;SDS011;36318;42.620;23.338;2022-08-21T04:15:51;10.93;;;4.73;;
17872;SDS011;36318;42.620;23.338;2022-08-21T04:18:18;6.97;;;4.10;;
17872;SDS011;36318;42.620;23.338;2022-08-21T04:20:46;9.73;;;4.00;;
17872;SDS011;36318;42.620;23.338;2022-08-21T04:23:16;6.83;;;4.13;;
17872;SDS011;36318;42.620;23.338;2022-08-21T04:25:43;8.97;;;4.43;;
17872;SDS011;36318;42.620;23.338;2022-08-21T04:28:10;7.83;;;4.17;;
17872;SDS011;36318;42.620;23.338;2022-08-21T04:30:38;11.07;;;4.50;;
17872;SDS011;36318;42.620;23.338;2022-08-21T04:33:05;11.47;;;4.07;;
17872;SDS011;36318;42.620;23.338;2022-08-21T04:35:32;8.63;;;4.33;;
17872;SDS011;36318;42.620;23.338;2022-08-21T04:37:59;12.83;;;4.50;;
17872;SDS011;36318;42.620;23.338;2022-08-21T04:40:26;10.03;;;4.23;;
17872;SDS011;36318;42.620;23.338;2022-08-21T04:42:55;6.53;;;3.87;;
17872;SDS011;36318;42.620;23.338;2022-08-21T04:45:25;6.33;;;3.70;;
17872;SDS011;36318;42.620;23.338;2022-08-21T04:47:56;7.63;;;3.53;;
17872;SDS011;36318;42.620;23.338;2022-08-21T04:50:25;10.37;;;4.10;;
17872;SDS011;36318;42.620;23.338;2022-08-21T04:52:54;14.33;;;5.90;;
17872;SDS011;36318;42.620;23.338;2022-08-21T04:55:21;11.33;;;5.80;;
17872;SDS011;36318;42.620;23.338;2022-08-21T04:57:50;14.33;;;5.40;;
17872;SDS011;36318;42.620;23.338;2022-08-21T05:00:18;11.23;;;5.77;;
17872;SDS011;36318;42.620;23.338;2022-08-21T05:02:46;12.23;;;6.10;;
17872;SDS011;36318;42.620;23.338;2022-08-21T05:05:15;11.80;;;5.90;;
17872;SDS011;36318;42.620;23.338;2022-08-21T05:07:42;9.13;;;5.23;;
17872;SDS011;36318;42.620;23.338;2022-08-21T05:10:11;10.70;;;5.07;;
17872;SDS011;36318;42.620;23.338;2022-08-21T05:12:40;11.80;;;5.57;;
17872;SDS011;36318;42.620;23.338;2022-08-21T05:15:08;13.97;;;4.47;;
17872;SDS011;36318;42.620;23.338;2022-08-21T05:17:37;12.00;;;4.40;;
17872;SDS011;36318;42.620;23.338;2022-08-21T05:20:04;9.20;;;4.00;;
17872;SDS011;36318;42.620;23.338;2022-08-21T05:22:33;11.43;;;4.63;;
17872;SDS011;36318;42.620;23.338;2022-08-21T05:25:00;12.03;;;4.10;;
17872;SDS011;36318;42.620;23.338;2022-08-21T05:27:27;13.20;;;4.20;;
17872;SDS011;36318;42.620;23.338;2022-08-21T05:29:54;8.40;;;3.87;;
17872;SDS011;36318;42.620;23.338;2022-08-21T05:32:21;11.93;;;4.90;;
17872;SDS011;36318;42.620;23.338;2022-08-21T05:34:49;8.87;;;4.80;;
17872;SDS011;36318;42.620;23.338;2022-08-21T05:37:16;10.97;;;5.07;;
17872;SDS011;36318;42.620;23.338;2022-08-21T05:39:44;8.47;;;4.60;;
17872;SDS011;36318;42.620;23.338;2022-08-21T05:42:11;10.27;;;5.23;;
17872;SDS011;36318;42.620;23.338;2022-08-21T05:44:38;11.07;;;5.37;;
17872;SDS011;36318;42.620;23.338;2022-08-21T05:47:05;12.03;;;5.93;;
17872;SDS011;36318;42.620;23.338;2022-08-21T05:49:34;11.33;;;5.80;;
17872;SDS011;36318;42.620;23.338;2022-08-21T05:52:01;12.80;;;5.70;;
17872;SDS011;36318;42.620;23.338;2022-08-21T05:54:29;8.80;;;5.80;;
17872;SDS011;36318;42.620;23.338;2022-08-21T05:56:58;17.40;;;5.93;;
17872;SDS011;36318;42.620;23.338;2022-08-21T05:59:24;16.10;;;6.10;;
17872;SDS011;36318;42.620;23.338;2022-08-21T06:01:52;11.60;;;6.43;;
17872;SDS011;36318;42.620;23.338;2022-08-21T06:04:19;14.43;;;5.60;;
17872;SDS011;36318;42.620;23.338;2022-08-21T06:06:46;7.40;;;5.50;;
17872;SDS011;36318;42.620;23.338;2022-08-21T06:09:13;11.97;;;6.03;;
17872;SDS011;36318;42.620;23.338;2022-08-21T06:11:40;13.03;;;5.57;;
17872;SDS011;36318;42.620;23.338;2022-08-21T06:14:08;8.53;;;5.10;;
17872;SDS011;36318;42.620;23.338;2022-08-21T06:16:35;8.93;;;5.07;;
17872;SDS011;36318;42.620;23.338;2022-08-21T06:19:02;12.13;;;5.73;;
17872;SDS011;36318;42.620;23.338;2022-08-21T06:21:29;13.43;;;5.70;;
17872;SDS011;36318;42.620;23.338;2022-08-21T06:23:55;6.17;;;5.03;;
17872;SDS011;36318;42.620;23.338;2022-08-21T06:26:22;9.80;;;4.97;;
17872;SDS011;36318;42.620;23.338;2022-08-21T06:28:49;9.63;;;5.30;;
17872;SDS011;36318;42.620;23.338;2022-08-21T06:31:18;11.83;;;5.23;;
17872;SDS011;36318;42.620;23.338;2022-08-21T06:33:48;10.23;;;5.80;;
17872;SDS011;36318;42.620;23.338;2022-08-21T06:36:16;9.43;;;4.80;;
17872;SDS011;36318;42.620;23.338;2022-08-21T06:38:43;10.73;;;5.40;;
17872;SDS011;36318;42.620;23.338;2022-08-21T06:41:10;10.63;;;5.10;;
17872;SDS011;36318;42.620;23.338;2022-08-21T06:43:37;11.07;;;4.97;;
17872;SDS011;36318;42.620;23.338;2022-08-21T06:46:04;13.53;;;5.07;;
17872;SDS011;36318;42.620;23.338;2022-08-21T06:48:33;8.10;;;4.83;;
17872;SDS011;36318;42.620;23.338;2022-08-21T06:51:00;8.57;;;5.00;;
17872;SDS011;36318;42.620;23.338;2022-08-21T06:53:27;10.20;;;4.67;;
17872;SDS011;36318;42.620;23.338;2022-08-21T06:55:54;10.47;;;4.37;;
17872;SDS011;36318;42.620;23.338;2022-08-21T06:58:21;8.10;;;4.33;;
17872;SDS011;36318;42.620;23.338;2022-08-21T07:00:48;9.03;;;4.67;;
17872;SDS011;36318;42.620;23.338;2022-08-21T07:03:20;10.27;;;5.20;;
17872;SDS011;36318;42.620;23.338;2022-08-21T07:05:51;13.50;;;4.83;;
17872;SDS011;36318;42.620;23.338;2022-08-21T07:08:18;15.03;;;5.37;;
17872;SDS011;36318;42.620;23.338;2022-08-21T07:10:45;17.87;;;5.10;;
17872;SDS011;36318;42.620;23.338;2022-08-21T07:13:12;9.00;;;5.00;;
17872;SDS011;36318;42.620;23.338;2022-08-21T07:15:39;14.27;;;5.37;;
17872;SDS011;36318;42.620;23.338;2022-08-21T07:18:07;7.50;;;5.00;;
17872;SDS011;36318;42.620;23.338;2022-08-21T07:20:34;10.53;;;5.83;;
17872;SDS011;36318;42.620;23.338;2022-08-21T07:23:03;10.27;;;5.07;;
17872;SDS011;36318;42.620;23.338;2022-08-21T07:25:32;12.17;;;5.40;;
17872;SDS011;36318;42.620;23.338;2022-08-21T07:27:59;28.93;;;17.57;;
17872;SDS011;36318;42.620;23.338;2022-08-21T07:30:26;13.53;;;6.27;;
17872;SDS011;36318;42.620;23.338;2022-08-21T07:32:54;12.57;;;6.47;;
17872;SDS011;36318;42.620;23.338;2022-08-21T07:35:21;12.67;;;7.23;;
17872;SDS011;36318;42.620;23.338;2022-08-21T07:37:49;16.27;;;14.57;;
17872;SDS011;36318;42.620;23.338;2022-08-21T07:40:17;13.63;;;11.80;;
17872;SDS011;36318;42.620;23.338;2022-08-21T07:42:44;10.93;;;4.60;;
17872;SDS011;36318;42.620;23.338;2022-08-21T07:45:15;11.48;;;4.65;;
17872;SDS011;36318;42.620;23.338;2022-08-21T07:47:42;11.73;;;4.38;;
17872;SDS011;36318;42.620;23.338;2022-08-21T07:50:09;10.00;;;3.78;;
17872;SDS011;36318;42.620;23.338;2022-08-21T07:52:36;10.60;;;4.50;;
17872;SDS011;36318;42.620;23.338;2022-08-21T07:55:03;7.18;;;4.28;;
17872;SDS011;36318;42.620;23.338;2022-08-21T07:57:32;8.05;;;4.30;;
17872;SDS011;36318;42.620;23.338;2022-08-21T07:59:59;8.27;;;4.30;;
17872;SDS011;36318;42.620;23.338;2022-08-21T08:02:27;12.13;;;4.93;;
17872;SDS011;36318;42.620;23.338;2022-08-21T08:04:58;7.32;;;4.78;;
17872;SDS011;36318;42.620;23.338;2022-08-21T08:07:26;8.00;;;4.15;;
17872;SDS011;36318;42.620;23.338;2022-08-21T08:09:53;7.50;;;4.70;;
17872;SDS011;36318;42.620;23.338;2022-08-21T08:12:19;9.07;;;4.57;;
17872;SDS011;36318;42.620;23.338;2022-08-21T08:14:48;14.07;;;5.00;;
17872;SDS011;36318;42.620;23.338;2022-08-21T08:17:15;7.63;;;5.30;;
17872;SDS011;36318;42.620;23.338;2022-08-21T08:19:41;9.50;;;4.73;;
17872;SDS011;36318;42.620;23.338;2022-08-21T08:22:12;19.65;;;4.75;;
17872;SDS011;36318;42.620;23.338;2022-08-21T08:24:39;14.32;;;4.75;;
17872;SDS011;36318;42.620;23.338;2022-08-21T08:27:06;8.07;;;4.63;;
17872;SDS011;36318;42.620;23.338;2022-08-21T08:29:33;7.53;;;4.10;;
17872;SDS011;36318;42.620;23.338;2022-08-21T08:32:01;8.05;;;5.20;;
17872;SDS011;36318;42.620;23.338;2022-08-21T08:34:29;13.88;;;5.63;;
17872;SDS011;36318;42.620;23.338;2022-08-21T08:36:56;10.27;;;5.20;;
17872;SDS011;36318;42.620;23.338;2022-08-21T08:39:24;7.60;;;4.97;;
17872;SDS011;36318;42.620;23.338;2022-08-21T08:41:52;10.77;;;4.95;;
17872;SDS011;36318;42.620;23.338;2022-08-21T08:44:39;7.38;;;3.97;;
17872;SDS011;36318;42.620;23.338;2022-08-21T08:47:07;8.05;;;4.63;;
17872;SDS011;36318;42.620;23.338;2022-08-21T08:49:37;9.40;;;4.95;;
17872;SDS011;36318;42.620;23.338;2022-08-21T08:52:11;5.80;;;3.78;;
17872;SDS011;36318;42.620;23.338;2022-08-21T08:54:48;9.85;;;5.10;;
17872;SDS011;36318;42.620;23.338;2022-08-21T08:57:23;8.93;;;5.43;;
17872;SDS011;36318;42.620;23.338;2022-08-21T08:59:51;11.20;;;5.07;;
17872;SDS011;36318;42.620;23.338;2022-08-21T09:02:23;8.13;;;5.40;;
17872;SDS011;36318;42.620;23.338;2022-08-21T09:04:52;13.73;;;5.30;;
17872;SDS011;36318;42.620;23.338;2022-08-21T09:07:22;9.95;;;5.07;;
17872;SDS011;36318;42.620;23.338;2022-08-21T09:10:12;10.45;;;4.97;;
17872;SDS011;36318;42.620;23.338;2022-08-21T09:12:45;10.85;;;5.43;;
17872;SDS011;36318;42.620;23.338;2022-08-21T09:15:24;9.48;;;4.80;;
17872;SDS011;36318;42.620;23.338;2022-08-21T09:18:02;10.90;;;4.88;;
17872;SDS011;36318;42.620;23.338;2022-08-21T09:20:40;11.02;;;5.10;;
17872;SDS011;36318;42.620;23.338;2022-08-21T09:23:21;11.23;;;4.70;;
17872;SDS011;36318;42.620;23.338;2022-08-21T09:25:59;11.02;;;5.13;;
17872;SDS011;36318;42.620;23.338;2022-08-21T09:28:32;12.63;;;5.15;;
17872;SDS011;36318;42.620;23.338;2022-08-21T09:31:00;10.48;;;4.78;;
17872;SDS011;36318;42.620;23.338;2022-08-21T09:33:30;7.50;;;5.03;;
17872;SDS011;36318;42.620;23.338;2022-08-21T09:35:57;6.18;;;4.32;;
17872;SDS011;36318;42.620;23.338;2022-08-21T09:38:25;9.20;;;5.30;;
17872;SDS011;36318;42.620;23.338;2022-08-21T09:40:58;7.10;;;4.70;;
17872;SDS011;36318;42.620;23.338;2022-08-21T09:43:27;17.70;;;5.05;;
17872;SDS011;36318;42.620;23.338;2022-08-21T09:46:02;6.72;;;4.97;;
17872;SDS011;36318;42.620;23.338;2022-08-21T09:48:41;7.00;;;4.70;;
17872;SDS011;36318;42.620;23.338;2022-08-21T09:51:11;7.93;;;4.35;;
17872;SDS011;36318;42.620;23.338;2022-08-21T09:53:42;8.82;;;4.53;;
17872;SDS011;36318;42.620;23.338;2022-08-21T09:56:25;6.15;;;4.30;;
17872;SDS011;36318;42.620;23.338;2022-08-21T09:59:15;6.97;;;4.90;;
17872;SDS011;36318;42.620;23.338;2022-08-21T10:01:45;10.15;;;5.05;;
17872;SDS011;36318;42.620;23.338;2022-08-21T10:04:18;9.97;;;5.40;;
17872;SDS011;36318;42.620;23.338;2022-08-21T10:06:47;10.63;;;5.53;;
17872;SDS011;36318;42.620;23.338;2022-08-21T10:09:15;11.73;;;5.00;;
17872;SDS011;36318;42.620;23.338;2022-08-21T10:11:47;8.37;;;4.87;;
17872;SDS011;36318;42.620;23.338;2022-08-21T10:14:20;12.67;;;5.13;;
17872;SDS011;36318;42.620;23.338;2022-08-21T10:17:01;10.63;;;4.70;;
17872;SDS011;36318;42.620;23.338;2022-08-21T10:19:36;9.43;;;4.63;;
17872;SDS011;36318;42.620;23.338;2022-08-21T10:22:15;11.13;;;5.10;;
17872;SDS011;36318;42.620;23.338;2022-08-21T10:24:52;9.00;;;5.13;;
17872;SDS011;36318;42.620;23.338;2022-08-21T10:27:30;10.83;;;4.90;;
17872;SDS011;36318;42.620;23.338;2022-08-21T10:30:06;11.80;;;4.77;;
17872;SDS011;36318;42.620;23.338;2022-08-21T10:32:41;9.90;;;4.80;;
17872;SDS011;36318;42.620;23.338;2022-08-21T10:35:21;10.37;;;5.23;;
17872;SDS011;36318;42.620;23.338;2022-08-21T10:37:57;7.60;;;4.47;;
17872;SDS011;36318;42.620;23.338;2022-08-21T10:40:40;8.13;;;5.10;;
17872;SDS011;36318;42.620;23.338;2022-08-21T10:43:20;6.20;;;4.35;;
17872;SDS011;36318;42.620;23.338;2022-08-21T10:45:57;8.02;;;5.00;;
17872;SDS011;36318;42.620;23.338;2022-08-21T10:48:35;5.93;;;4.35;;
17872;SDS011;36318;42.620;23.338;2022-08-21T10:51:10;11.75;;;5.00;;
17872;SDS011;36318;42.620;23.338;2022-08-21T10:53:47;14.32;;;5.00;;
17872;SDS011;36318;42.620;23.338;2022-08-21T10:56:20;6.65;;;4.30;;
17872;SDS011;36318;42.620;23.338;2022-08-21T10:59:01;11.05;;;5.15;;
17872;SDS011;36318;42.620;23.338;2022-08-21T11:01:38;11.45;;;4.72;;
17872;SDS011;36318;42.620;23.338;2022-08-21T11:04:12;7.00;;;4.45;;
17872;SDS011;36318;42.620;23.338;2022-08-21T11:06:46;8.50;;;4.40;;
17872;SDS011;36318;42.620;23.338;2022-08-21T11:09:20;8.25;;;4.82;;
17872;SDS011;36318;42.620;23.338;2022-08-21T11:11:52;6.47;;;4.55;;
17872;SDS011;36318;42.620;23.338;2022-08-21T11:14:24;5.97;;;4.45;;
17872;SDS011;36318;42.620;23.338;2022-08-21T11:17:01;10.43;;;4.10;;
17872;SDS011;36318;42.620;23.338;2022-08-21T11:19:35;7.10;;;4.35;;
17872;SDS011;36318;42.620;23.338;2022-08-21T11:22:10;10.43;;;3.83;;
17872;SDS011;36318;42.620;23.338;2022-08-21T11:24:42;6.38;;;3.85;;
17872;SDS011;36318;42.620;23.338;2022-08-21T11:27:15;8.43;;;4.28;;
17872;SDS011;36318;42.620;23.338;2022-08-21T11:29:48;7.35;;;3.95;;
17872;SDS011;36318;42.620;23.338;2022-08-21T11:32:24;6.55;;;4.57;;
17872;SDS011;36318;42.620;23.338;2022-08-21T11:35:25;7.35;;;3.75;;
17872;SDS011;36318;42.620;23.338;2022-08-21T11:38:03;8.68;;;4.10;;
17872;SDS011;36318;42.620;23.338;2022-08-21T11:40:48;9.05;;;4.35;;
17872;SDS011;36318;42.620;23.338;2022-08-21T11:43:31;7.55;;;4.18;;
17872;SDS011;36318;42.620;23.338;2022-08-21T11:46:07;7.25;;;4.22;;
17872;SDS011;36318;42.620;23.338;2022-08-21T11:48:43;8.00;;;4.22;;
17872;SDS011;36318;42.620;23.338;2022-08-21T11:51:18;6.22;;;3.85;;
17872;SDS011;36318;42.620;23.338;2022-08-21T11:53:51;7.68;;;4.05;;
17872;SDS011;36318;42.620;23.338;2022-08-21T11:56:26;5.45;;;3.83;;
17872;SDS011;36318;42.620;23.338;2022-08-21T11:58:59;12.23;;;4.13;;
17872;SDS011;36318;42.620;23.338;2022-08-21T12:01:30;6.65;;;4.10;;
17872;SDS011;36318;42.620;23.338;2022-08-21T12:04:02;6.20;;;3.97;;
17872;SDS011;36318;42.620;23.338;2022-08-21T12:06:36;6.00;;;3.90;;
17872;SDS011;36318;42.620;23.338;2022-08-21T12:09:05;7.15;;;3.65;;
17872;SDS011;36318;42.620;23.338;2022-08-21T12:11:45;8.85;;;4.13;;
17872;SDS011;36318;42.620;23.338;2022-08-21T12:14:14;9.25;;;6.72;;
17872;SDS011;36318;42.620;23.338;2022-08-21T12:16:43;7.70;;;4.35;;
17872;SDS011;36318;42.620;23.338;2022-08-21T12:19:12;7.28;;;4.10;;
17872;SDS011;36318;42.620;23.338;2022-08-21T12:21:57;7.28;;;4.07;;
17872;SDS011;36318;42.620;23.338;2022-08-21T12:24:36;7.32;;;4.47;;
17872;SDS011;36318;42.620;23.338;2022-08-21T12:27:13;8.23;;;4.43;;
17872;SDS011;36318;42.620;23.338;2022-08-21T12:29:50;7.67;;;4.47;;
17872;SDS011;36318;42.620;23.338;2022-08-21T12:32:22;6.50;;;4.53;;
17872;SDS011;36318;42.620;23.338;2022-08-21T12:34:52;10.47;;;4.60;;
17872;SDS011;36318;42.620;23.338;2022-08-21T12:37:21;9.17;;;4.57;;
17872;SDS011;36318;42.620;23.338;2022-08-21T12:40:09;6.83;;;4.47;;
17872;SDS011;36318;42.620;23.338;2022-08-21T12:42:41;7.37;;;4.73;;
17872;SDS011;36318;42.620;23.338;2022-08-21T12:45:17;6.97;;;4.83;;
17872;SDS011;36318;42.620;23.338;2022-08-21T12:47:48;8.10;;;4.73;;
17872;SDS011;36318;42.620;23.338;2022-08-21T12:50:21;8.37;;;4.80;;
17872;SDS011;36318;42.620;23.338;2022-08-21T12:52:57;7.40;;;4.33;;
17872;SDS011;36318;42.620;23.338;2022-08-21T12:55:29;8.10;;;4.23;;
17872;SDS011;36318;42.620;23.338;2022-08-21T12:57:57;6.67;;;4.43;;
17872;SDS011;36318;42.620;23.338;2022-08-21T13:00:25;8.30;;;4.33;;
17872;SDS011;36318;42.620;23.338;2022-08-21T13:02:54;5.93;;;4.33;;
17872;SDS011;36318;42.620;23.338;2022-08-21T13:05:28;5.03;;;3.77;;
17872;SDS011;36318;42.620;23.338;2022-08-21T13:07:57;6.30;;;4.50;;
17872;SDS011;36318;42.620;23.338;2022-08-21T13:10:30;13.07;;;4.40;;
17872;SDS011;36318;42.620;23.338;2022-08-21T13:13:00;10.73;;;4.97;;
17872;SDS011;36318;42.620;23.338;2022-08-21T13:15:31;8.37;;;4.43;;
17872;SDS011;36318;42.620;23.338;2022-08-21T13:17:59;9.97;;;3.93;;
17872;SDS011;36318;42.620;23.338;2022-08-21T13:20:28;11.47;;;4.67;;
17872;SDS011;36318;42.620;23.338;2022-08-21T13:22:56;4.33;;;3.70;;
17872;SDS011;36318;42.620;23.338;2022-08-21T13:25:25;9.23;;;4.33;;
17872;SDS011;36318;42.620;23.338;2022-08-21T13:27:59;6.50;;;4.53;;
17872;SDS011;36318;42.620;23.338;2022-08-21T13:30:28;10.17;;;4.47;;
17872;SDS011;36318;42.620;23.338;2022-08-21T13:32:57;7.63;;;4.30;;
17872;SDS011;36318;42.620;23.338;2022-08-21T13:35:27;7.43;;;3.90;;
17872;SDS011;36318;42.620;23.338;2022-08-21T13:37:57;8.90;;;3.80;;
17872;SDS011;36318;42.620;23.338;2022-08-21T13:40:26;6.65;;;3.83;;
17872;SDS011;36318;42.620;23.338;2022-08-21T13:42:55;8.43;;;4.47;;
17872;SDS011;36318;42.620;23.338;2022-08-21T13:45:27;8.38;;;4.65;;
17872;SDS011;36318;42.620;23.338;2022-08-21T13:47:57;9.15;;;4.80;;
17872;SDS011;36318;42.620;23.338;2022-08-21T13:50:27;9.23;;;4.83;;
17872;SDS011;36318;42.620;23.338;2022-08-21T13:52:59;8.60;;;4.60;;
17872;SDS011;36318;42.620;23.338;2022-08-21T13:55:34;7.75;;;4.68;;
17872;SDS011;36318;42.620;23.338;2022-08-21T13:58:04;7.63;;;4.53;;
17872;SDS011;36318;42.620;23.338;2022-08-21T14:00:33;8.03;;;4.70;;
17872;SDS011;36318;42.620;23.338;2022-08-21T14:03:09;8.50;;;5.00;;
17872;SDS011;36318;42.620;23.338;2022-08-21T14:05:42;10.18;;;5.28;;
17872;SDS011;36318;42.620;23.338;2022-08-21T14:08:10;11.15;;;4.47;;
17872;SDS011;36318;42.620;23.338;2022-08-21T14:10:41;12.10;;;4.93;;
17872;SDS011;36318;42.620;23.338;2022-08-21T14:13:29;9.93;;;5.13;;
17872;SDS011;36318;42.620;23.338;2022-08-21T14:16:03;7.33;;;4.93;;
17872;SDS011;36318;42.620;23.338;2022-08-21T14:18:42;7.10;;;5.05;;
17872;SDS011;36318;42.620;23.338;2022-08-21T14:21:22;8.10;;;4.93;;
17872;SDS011;36318;42.620;23.338;2022-08-21T14:24:02;8.07;;;4.90;;
17872;SDS011;36318;42.620;23.338;2022-08-21T14:26:31;8.80;;;5.03;;
17872;SDS011;36318;42.620;23.338;2022-08-21T14:29:02;10.38;;;5.05;;
17872;SDS011;36318;42.620;23.338;2022-08-21T14:31:34;15.43;;;4.93;;
17872;SDS011;36318;42.620;23.338;2022-08-21T14:34:01;9.40;;;4.80;;
17872;SDS011;36318;42.620;23.338;2022-08-21T14:36:28;9.47;;;5.00;;
17872;SDS011;36318;42.620;23.338;2022-08-21T14:38:55;9.10;;;5.13;;
17872;SDS011;36318;42.620;23.338;2022-08-21T14:41:22;8.40;;;4.73;;
17872;SDS011;36318;42.620;23.338;2022-08-21T14:43:53;12.70;;;4.57;;